CheckWX is a tool to help pilots better visualize weather data.  It is not intended as a substitute for an official pre-flight weather briefing.

14:38:23 UTC

EDDH TAF
Hamburg Airport
Hamburg, Germany
TAF EDDH 271100Z 2712/2818 31010KT CAVOK PROB30 TEMPO 2713/2718 34015G25KT TEMPO 2721/2804 31005KT PROB30 TEMPO 2804/2807 BKN013 BECMG 2816/2818 03005KT

May-27@
12:00 UTC

May-27 @ 12:00 UTC

May-28@
16:00 UTC

May-28 @ 16:00 UTC

TAF EDDH 271100Z 2712/2818 31010KT CAVOK
Wind
  • 310° at 10 KTS
Conditions
No significant weather
Cloud Levels
  • No significant clouds

May-27@
13:00 UTC

May-27 @ 13:00 UTC

May-27@
18:00 UTC

May-27 @ 18:00 UTC

PROB30 TEMPO 2713/2718 34015G25KT

Expired

Wind
  • 340° at 15 KTS
  • {Gusting to 25 KTS
Cloud Levels

May-27@
21:00 UTC

May-27 @ 21:00 UTC

May-28@
04:00 UTC

May-28 @ 04:00 UTC

TEMPO 2721/2804 31005KT

Expired

Wind
  • 310° at 5 KTS
Cloud Levels

May-28@
04:00 UTC

May-28 @ 04:00 UTC

May-28@
07:00 UTC

May-28 @ 07:00 UTC

PROB30 TEMPO 2804/2807 BKN013

Expired

Cloud Levels
  • Broken at 1,300' AGL

May-28@
16:00 UTC

May-28 @ 16:00 UTC

May-28@
18:00 UTC

May-28 @ 18:00 UTC

BECMG 2816/2818 03005KT

Becoming

Becoming Conditions expected by Thu, May 28, 2020 @ 18:00 UTC

Wind
  • 030° at 5 KTS
Conditions
No significant weather
Cloud Levels
  • No significant clouds